Terminal Aerodrome Forecast
Issued by NWS

Home | Current Version | Previous Version | Graphics & Text | Print | Product List | Glossary On
Versions: 1 2 3 4 5 6 7 8 9 10 11 12 13 14 15 16 17 18 19 20
000
FTUS43 KMPX 240537
TAFAXN
TAF
KAXN 240537Z 2406/2506 14011KT P6SM BKN008 OVC015
     FM241400 14014G22KT P6SM BKN015 OVC100
     FM241600 14015G23KT P6SM BKN050
     FM242200 14015G23KT 6SM -RASN BKN025 OVC090
     FM250000 12014G20KT 2SM -SN BR OVC010=

USA.gov is the U.S. government's official web portal to all federal, state and local government web resources and services.